Time;durP1;ratioP1;P1;durP2;ratioP2;P2;SDS_P1;SDS_P2;PMS_P1;PMS_P2;Temp;Humidity;BMP_temperature;BMP_pressure;BME280_temperature;BME280_humidity;BME280_pressure;Samples;Min_cycle;Max_cycle;Signal;HPM_P1;HPM_P2
2023/07/24 00:01:03;;;;;;;2.45;2.25;;;;;24.50;100284.00;;;;5089655;28;20202;-82
2023/07/24 00:03:30;;;;;;;1.85;1.60;;;;;24.50;100286.00;;;;5089943;28;20202;-81
2023/07/24 00:06:00;;;;;;;2.28;1.77;;;;;24.50;100285.00;;;;5089947;28;20230;-82
2023/07/24 00:08:28;;;;;;;3.22;2.10;;;;;24.50;100276.00;;;;5090597;28;20198;-82
2023/07/24 00:10:55;;;;;;;2.53;1.95;;;;;24.50;100280.00;;;;5093887;28;20205;-81
2023/07/24 00:13:22;;;;;;;2.08;1.73;;;;;24.50;100282.00;;;;5110087;28;20521;-81
2023/07/24 00:15:49;;;;;;;3.50;2.00;;;;;24.50;100275.00;;;;5110263;28;20776;-81
2023/07/24 00:18:16;;;;;;;2.00;1.80;;;;;24.50;100274.00;;;;5108685;28;20537;-82
2023/07/24 00:20:44;;;;;;;1.88;1.70;;;;;24.50;100272.00;;;;5110205;28;20205;-82
2023/07/24 00:23:12;;;;;;;2.80;2.15;;;;;24.40;100268.00;;;;5109662;28;20201;-82
2023/07/24 00:25:39;;;;;;;2.88;1.77;;;;;24.40;100269.00;;;;5094668;28;20206;-81
2023/07/24 00:28:07;;;;;;;3.13;2.80;;;;;24.40;100263.00;;;;5089441;28;20675;-82
2023/07/24 00:30:34;;;;;;;2.97;2.42;;;;;24.40;100261.00;;;;5089057;28;20198;-82
2023/07/24 00:33:01;;;;;;;2.28;2.05;;;;;24.40;100261.00;;;;5089867;28;20198;-82
2023/07/24 00:35:28;;;;;;;2.38;2.17;;;;;24.40;100257.00;;;;5089684;28;20205;-82
2023/07/24 00:37:56;;;;;;;5.05;2.20;;;;;24.40;100257.00;;;;5089305;28;20229;-82
2023/07/24 00:40:24;;;;;;;3.08;2.55;;;;;24.30;100246.00;;;;5088770;28;20202;-81
2023/07/24 00:42:52;;;;;;;3.97;1.92;;;;;24.40;100238.00;;;;5089820;28;20206;-82
2023/07/24 00:45:20;;;;;;;2.38;2.03;;;;;24.40;100234.00;;;;5089531;28;20209;-82
2023/07/24 00:47:47;;;;;;;2.53;1.92;;;;;24.30;100221.00;;;;5089283;28;20210;-82
2023/07/24 00:50:15;;;;;;;4.35;2.42;;;;;24.30;100221.00;;;;5088762;28;20187;-81
2023/07/24 00:52:43;;;;;;;2.40;2.03;;;;;24.30;100222.00;;;;5089548;28;20202;-82
2023/07/24 00:55:11;;;;;;;2.63;2.17;;;;;24.40;100215.00;;;;5089002;28;20221;-82
2023/07/24 00:57:40;;;;;;;2.78;2.40;;;;;24.30;100211.00;;;;5088564;28;20578;-81
2023/07/24 01:00:09;;;;;;;2.13;1.90;;;;;24.40;100205.00;;;;5090005;28;20210;-81
2023/07/24 01:02:37;;;;;;;2.53;2.30;;;;;24.40;100209.00;;;;5088909;28;20201;-82
2023/07/24 01:05:06;;;;;;;2.78;2.35;;;;;24.40;100215.00;;;;5088184;28;20305;-81
2023/07/24 01:07:33;;;;;;;3.25;2.17;;;;;24.40;100225.00;;;;5094447;28;20213;-81
2023/07/24 01:10:02;;;;;;;2.03;1.90;;;;;24.40;100222.00;;;;5108940;28;20292;-81
2023/07/24 01:12:36;;;;;;;2.42;2.15;;;;;24.40;100218.00;;;;5107575;28;20205;-82
2023/07/24 01:15:11;;;;;;;2.45;2.25;;;;;24.30;100211.00;;;;5108105;28;20558;-83
2023/07/24 01:17:46;;;;;;;5.40;2.33;;;;;24.40;100208.00;;;;5109001;28;20278;-81
2023/07/24 01:20:14;;;;;;;2.33;2.13;;;;;24.40;100208.00;;;;5109806;28;20201;-82
2023/07/24 01:22:54;;;;;;;2.47;2.22;;;;;24.30;100206.00;;;;5108006;28;20208;-81
2023/07/24 01:25:28;;;;;;;2.17;1.98;;;;;24.30;100201.00;;;;5108981;28;20283;-82
2023/07/24 01:27:57;;;;;;;2.10;1.90;;;;;24.30;100208.00;;;;5108683;28;20212;-82
2023/07/24 01:30:25;;;;;;;2.35;2.05;;;;;24.40;100193.00;;;;5108513;28;20663;-81
2023/07/24 01:32:52;;;;;;;2.50;2.30;;;;;24.40;100205.00;;;;5100589;28;20202;-81
2023/07/24 01:35:19;;;;;;;2.63;1.75;;;;;24.40;100206.00;;;;5087581;28;20699;-81
2023/07/24 01:37:48;;;;;;;1.95;1.80;;;;;24.40;100197.00;;;;5088429;28;20683;-81
2023/07/24 01:40:17;;;;;;;1.60;1.30;;;;;24.40;100199.00;;;;5088703;28;20198;-82
2023/07/24 01:42:44;;;;;;;1.88;1.65;;;;;24.40;100192.00;;;;5088379;28;20209;-82
2023/07/24 01:45:13;;;;;;;1.70;1.45;;;;;24.40;100191.00;;;;5088670;28;20209;-82
2023/07/24 01:47:40;;;;;;;2.28;1.90;;;;;24.40;100185.00;;;;5088075;28;20210;-81
2023/07/24 01:50:08;;;;;;;2.25;2.05;;;;;24.40;100183.00;;;;5088807;28;20206;-81
2023/07/24 01:52:36;;;;;;;2.08;1.60;;;;;24.40;100176.00;;;;5087610;28;20206;-82
2023/07/24 01:55:03;;;;;;;1.90;1.52;;;;;24.30;100174.00;;;;5088068;28;20212;-81
2023/07/24 01:57:30;;;;;;;1.85;1.63;;;;;24.30;100175.00;;;;5087776;28;20579;-81
2023/07/24 01:59:58;;;;;;;2.08;1.55;;;;;24.30;100173.00;;;;5105236;28;20686;-81
2023/07/24 02:02:26;;;;;;;2.35;1.50;;;;;24.30;100170.00;;;;5108124;28;20447;-81
2023/07/24 02:04:53;;;;;;;11.20;1.55;;;;;24.30;100166.00;;;;5107837;28;20221;-81
2023/07/24 02:07:21;;;;;;;1.35;1.23;;;;;24.30;100160.00;;;;5099392;28;20228;-82
2023/07/24 02:09:48;;;;;;;2.05;1.45;;;;;24.30;100162.00;;;;5108902;28;20212;-81
2023/07/24 02:12:15;;;;;;;1.50;1.40;;;;;24.30;100162.00;;;;5108115;28;20664;-81
2023/07/24 02:14:42;;;;;;;1.75;1.25;;;;;24.30;100161.00;;;;5108641;28;20217;-81
2023/07/24 02:17:10;;;;;;;1.50;1.27;;;;;24.30;100157.00;;;;5108250;28;20705;-81
2023/07/24 02:19:38;;;;;;;1.73;1.40;;;;;24.30;100161.00;;;;5101804;28;20606;-82
2023/07/24 02:22:05;;;;;;;2.03;1.30;;;;;24.30;100150.00;;;;5108432;28;20221;-83
2023/07/24 02:24:33;;;;;;;1.95;1.27;;;;;24.30;100147.00;;;;5107018;28;20675;-81
2023/07/24 02:27:01;;;;;;;1.58;1.48;;;;;24.30;100157.00;;;;5108302;28;20194;-83
2023/07/24 02:29:28;;;;;;;1.50;1.20;;;;;24.30;100153.00;;;;5108031;28;20208;-82
2023/07/24 02:31:56;;;;;;;1.25;1.05;;;;;24.20;100145.00;;;;5108707;28;20670;-82
2023/07/24 02:34:26;;;;;;;1.48;1.38;;;;;24.20;100148.00;;;;5107534;28;20205;-82
2023/07/24 02:36:54;;;;;;;1.45;1.20;;;;;24.20;100145.00;;;;5108595;28;20202;-82
2023/07/24 02:39:22;;;;;;;1.20;1.00;;;;;24.20;100146.00;;;;5107352;28;20232;-82
2023/07/24 02:41:49;;;;;;;1.20;0.90;;;;;24.20;100143.00;;;;5109215;28;20657;-82
2023/07/24 02:44:16;;;;;;;2.03;1.42;;;;;24.20;100144.00;;;;5111925;28;20682;-82
2023/07/24 02:46:44;;;;;;;3.25;1.30;;;;;24.20;100142.00;;;;5112211;28;20216;-82
2023/07/24 02:49:11;;;;;;;2.28;1.25;;;;;24.20;100141.00;;;;5111214;28;20416;-81
2023/07/24 02:51:38;;;;;;;1.30;1.17;;;;;24.20;100134.00;;;;5111691;28;20201;-82
2023/07/24 02:54:07;;;;;;;1.80;1.23;;;;;24.20;100133.00;;;;5111961;28;20186;-82
2023/07/24 02:56:34;;;;;;;1.95;1.33;;;;;24.20;100123.00;;;;5112005;28;20198;-82
2023/07/24 02:59:01;;;;;;;1.77;1.13;;;;;24.20;100126.00;;;;5110399;28;20232;-82
2023/07/24 03:01:29;;;;;;;1.92;1.75;;;;;24.20;100129.00;;;;5111144;28;20204;-82
2023/07/24 03:03:56;;;;;;;13.05;1.40;;;;;24.20;100134.00;;;;5111943;28;20205;-81
2023/07/24 03:06:23;;;;;;;1.85;1.27;;;;;24.20;100136.00;;;;5110765;28;20233;-81
2023/07/24 03:08:51;;;;;;;2.22;1.30;;;;;24.20;100128.00;;;;5112220;28;20197;-82
2023/07/24 03:11:19;;;;;;;1.35;1.10;;;;;24.10;100129.00;;;;5110328;28;20213;-81
2023/07/24 03:13:46;;;;;;;1.90;1.40;;;;;24.10;100126.00;;;;5111323;28;20205;-81
2023/07/24 03:16:14;;;;;;;2.28;1.73;;;;;24.10;100118.00;;;;5092155;28;20203;-80
2023/07/24 03:18:41;;;;;;;5.10;1.05;;;;;24.10;100116.00;;;;5089734;28;20426;-81
2023/07/24 03:21:09;;;;;;;1.50;1.08;;;;;24.10;100106.00;;;;5091247;28;20235;-80
2023/07/24 03:23:36;;;;;;;1.98;1.40;;;;;24.10;100100.00;;;;5090316;28;20332;-80
2023/07/24 03:26:03;;;;;;;2.10;1.58;;;;;24.10;100102.00;;;;5091174;28;20567;-80
2023/07/24 03:28:33;;;;;;;2.50;2.00;;;;;24.10;100110.00;;;;5089729;28;20202;-80
2023/07/24 03:31:00;;;;;;;2.40;1.88;;;;;24.10;100117.00;;;;5091673;28;20228;-80
2023/07/24 03:33:27;;;;;;;2.42;1.60;;;;;24.00;100114.00;;;;5090675;28;20198;-80
2023/07/24 03:35:54;;;;;;;1.98;1.63;;;;;24.00;100108.00;;;;5090745;28;20202;-81
2023/07/24 03:38:22;;;;;;;2.72;1.90;;;;;24.00;100102.00;;;;5090145;28;20695;-80
2023/07/24 03:40:49;;;;;;;2.10;1.80;;;;;24.00;100109.00;;;;5090455;28;20205;-80
2023/07/24 03:43:16;;;;;;;2.25;1.98;;;;;24.00;100114.00;;;;5090333;28;21346;-80
2023/07/24 03:45:45;;;;;;;2.50;1.70;;;;;23.90;100107.00;;;;5090294;28;20214;-81
2023/07/24 03:48:12;;;;;;;1.75;1.52;;;;;23.90;100105.00;;;;5090844;28;20209;-80
2023/07/24 03:50:41;;;;;;;2.20;1.77;;;;;23.90;100116.00;;;;5090097;28;20198;-81
2023/07/24 03:53:08;;;;;;;2.67;2.03;;;;;23.90;100119.00;;;;5089578;28;20203;-81
2023/07/24 03:55:36;;;;;;;3.50;2.20;;;;;23.90;100108.00;;;;5090167;28;20202;-80
2023/07/24 03:58:03;;;;;;;4.60;2.10;;;;;23.90;100112.00;;;;5090579;28;20209;-80
2023/07/24 04:00:31;;;;;;;2.70;2.22;;;;;23.90;100098.00;;;;5090078;28;20191;-80
2023/07/24 04:03:00;;;;;;;3.35;2.65;;;;;23.80;100103.00;;;;5090662;28;20190;-81
2023/07/24 04:05:27;;;;;;;2.55;2.25;;;;;23.80;100100.00;;;;5090428;28;20707;-81
2023/07/24 04:07:55;;;;;;;2.33;2.00;;;;;23.80;100099.00;;;;5107992;28;20228;-80
2023/07/24 04:10:22;;;;;;;2.95;2.38;;;;;23.80;100097.00;;;;5110019;28;20662;-80
2023/07/24 04:12:50;;;;;;;4.35;2.58;;;;;23.80;100101.00;;;;5109969;28;20201;-80
2023/07/24 04:15:17;;;;;;;2.70;2.50;;;;;23.80;100092.00;;;;5110304;28;20293;-79
2023/07/24 04:17:44;;;;;;;2.67;2.10;;;;;23.80;100087.00;;;;5110457;28;20186;-80
2023/07/24 04:20:13;;;;;;;3.03;2.72;;;;;23.70;100104.00;;;;5109729;28;20225;-80
2023/07/24 04:22:41;;;;;;;2.95;2.28;;;;;23.70;100100.00;;;;5103081;28;20221;-80
2023/07/24 04:25:09;;;;;;;3.53;2.10;;;;;23.70;100108.00;;;;5089419;28;20206;-80
2023/07/24 04:27:36;;;;;;;2.95;2.60;;;;;23.70;100101.00;;;;5089744;28;20198;-79
2023/07/24 04:30:04;;;;;;;3.67;2.75;;;;;23.70;100101.00;;;;5089201;28;20559;-80
2023/07/24 04:32:31;;;;;;;2.70;2.38;;;;;23.70;100104.00;;;;5089244;28;20201;-80
2023/07/24 04:34:58;;;;;;;5.05;3.15;;;;;23.70;100110.00;;;;5089863;28;20198;-80
2023/07/24 04:37:27;;;;;;;3.03;2.53;;;;;23.60;100113.00;;;;5089413;28;20206;-80
2023/07/24 04:39:54;;;;;;;2.90;2.47;;;;;23.70;100114.00;;;;5089952;28;20233;-80
2023/07/24 04:42:21;;;;;;;2.95;2.40;;;;;23.70;100118.00;;;;5088431;28;20201;-80
2023/07/24 04:44:49;;;;;;;3.05;2.75;;;;;23.70;100110.00;;;;5089333;28;20684;-79
2023/07/24 04:47:17;;;;;;;4.78;2.97;;;;;23.70;100109.00;;;;5089178;28;20233;-80
2023/07/24 04:49:44;;;;;;;3.75;2.72;;;;;23.60;100117.00;;;;5089145;28;20199;-80
2023/07/24 04:52:11;;;;;;;3.25;2.78;;;;;23.60;100116.00;;;;5089488;28;20203;-79
2023/07/24 04:54:40;;;;;;;3.28;2.65;;;;;23.60;100121.00;;;;5088858;28;20213;-80
2023/07/24 04:57:07;;;;;;;5.57;3.00;;;;;23.60;100121.00;;;;5088994;28;20213;-80
2023/07/24 04:59:34;;;;;;;4.13;2.90;;;;;23.60;100115.00;;;;5088132;28;20570;-80
2023/07/24 05:02:02;;;;;;;3.28;2.85;;;;;23.60;100113.00;;;;5088973;28;20209;-80
2023/07/24 05:04:29;;;;;;;3.00;2.60;;;;;23.60;100118.00;;;;5088183;28;20237;-80
2023/07/24 05:06:56;;;;;;;3.10;2.65;;;;;23.60;100124.00;;;;5106633;28;20225;-79
2023/07/24 05:09:23;;;;;;;4.63;3.15;;;;;23.60;100116.00;;;;5108484;28;20197;-80
2023/07/24 05:11:52;;;;;;;3.22;2.88;;;;;23.60;100115.00;;;;5108451;28;20194;-81
2023/07/24 05:14:19;;;;;;;3.95;2.80;;;;;23.60;100118.00;;;;5096341;28;20563;-81
2023/07/24 05:16:46;;;;;;;3.75;3.35;;;;;23.60;100111.00;;;;5088993;28;20197;-80
2023/07/24 05:19:14;;;;;;;4.70;2.83;;;;;23.60;100112.00;;;;5088336;28;20218;-81
2023/07/24 05:21:41;;;;;;;4.32;2.70;;;;;23.60;100109.00;;;;5087623;28;20205;-81
2023/07/24 05:24:08;;;;;;;5.70;3.03;;;;;23.60;100112.00;;;;5088734;28;20664;-81
2023/07/24 05:26:35;;;;;;;4.13;3.30;;;;;23.60;100118.00;;;;5088451;28;20202;-81
2023/07/24 05:29:04;;;;;;;3.53;2.63;;;;;23.60;100116.00;;;;5088475;28;20198;-81
2023/07/24 05:31:31;;;;;;;4.60;2.75;;;;;23.60;100122.00;;;;5088676;28;20195;-82
2023/07/24 05:33:58;;;;;;;3.67;3.08;;;;;23.60;100118.00;;;;5088071;28;20201;-81
2023/07/24 05:36:26;;;;;;;4.78;3.70;;;;;23.60;100124.00;;;;5087566;28;20202;-81
2023/07/24 05:38:53;;;;;;;7.57;3.15;;;;;23.60;100123.00;;;;5088180;28;20734;-81
2023/07/24 05:41:20;;;;;;;4.68;2.78;;;;;23.60;100110.00;;;;5088024;28;20186;-81
2023/07/24 05:43:48;;;;;;;3.95;3.22;;;;;23.60;100106.00;;;;5088048;28;20198;-80
2023/07/24 05:46:16;;;;;;;3.92;3.28;;;;;23.60;100118.00;;;;5088528;28;20202;-81
2023/07/24 05:48:43;;;;;;;4.55;3.20;;;;;23.60;100113.00;;;;5089064;28;20206;-81
2023/07/24 05:51:11;;;;;;;7.00;3.92;;;;;23.60;100116.00;;;;5088345;28;20214;-81
2023/07/24 05:53:38;;;;;;;4.45;3.35;;;;;23.60;100125.00;;;;5087656;28;20197;-81
2023/07/24 05:56:05;;;;;;;5.72;3.97;;;;;23.60;100123.00;;;;5088518;28;20548;-81
2023/07/24 05:58:32;;;;;;;5.15;3.75;;;;;23.60;100126.00;;;;5087422;28;20206;-81
2023/07/24 06:01:01;;;;;;;5.30;3.55;;;;;23.60;100123.00;;;;5088099;28;20222;-82
2023/07/24 06:03:29;;;;;;;4.57;3.28;;;;;23.60;100126.00;;;;5088442;28;20199;-81
2023/07/24 06:05:57;;;;;;;5.22;3.70;;;;;23.60;100130.00;;;;5097742;28;20241;-81
2023/07/24 06:08:24;;;;;;;5.50;3.67;;;;;23.70;100123.00;;;;5107762;28;20193;-81
2023/07/24 06:10:52;;;;;;;4.78;3.60;;;;;23.70;100128.00;;;;5108511;28;20213;-81
2023/07/24 06:13:19;;;;;;;6.20;4.18;;;;;23.70;100124.00;;;;5107518;28;20201;-82
2023/07/24 06:15:49;;;;;;;5.65;3.63;;;;;23.70;100135.00;;;;5108638;28;20564;-81
2023/07/24 06:18:16;;;;;;;6.07;3.58;;;;;23.80;100135.00;;;;5112211;28;20270;-81
2023/07/24 06:20:45;;;;;;;5.82;3.47;;;;;23.80;100131.00;;;;5112052;28;20228;-81
2023/07/24 06:23:12;;;;;;;5.10;3.70;;;;;23.80;100133.00;;;;5092950;28;20217;-81
2023/07/24 06:25:39;;;;;;;6.20;3.63;;;;;23.90;100136.00;;;;5091716;28;20201;-82
2023/07/24 06:28:07;;;;;;;4.63;3.88;;;;;23.90;100137.00;;;;5092366;28;20198;-81
2023/07/24 06:30:34;;;;;;;5.32;4.07;;;;;23.90;100138.00;;;;5091855;28;20209;-82
2023/07/24 06:33:01;;;;;;;6.32;3.90;;;;;24.00;100146.00;;;;5090907;28;20656;-82
2023/07/24 06:35:28;;;;;;;7.75;3.88;;;;;24.00;100147.00;;;;5092150;28;20209;-82
2023/07/24 06:37:57;;;;;;;5.38;3.83;;;;;24.00;100141.00;;;;5092500;28;20206;-82
2023/07/24 06:40:24;;;;;;;4.80;3.63;;;;;24.00;100141.00;;;;5091622;28;20221;-83
2023/07/24 06:42:52;;;;;;;4.53;3.97;;;;;24.00;100146.00;;;;5091469;28;20194;-81
2023/07/24 06:45:20;;;;;;;7.18;3.88;;;;;24.10;100143.00;;;;5090701;28;20186;-83
2023/07/24 06:47:47;;;;;;;7.35;4.40;;;;;24.10;100146.00;;;;5091927;28;20199;-82
2023/07/24 06:50:14;;;;;;;8.45;4.13;;;;;24.20;100140.00;;;;5091282;28;20194;-82
2023/07/24 06:52:41;;;;;;;6.80;3.75;;;;;24.20;100132.00;;;;5091013;28;20556;-82
2023/07/24 06:55:10;;;;;;;6.40;4.38;;;;;24.20;100136.00;;;;5092705;28;20217;-83
2023/07/24 06:57:37;;;;;;;4.55;3.75;;;;;24.30;100141.00;;;;5111438;28;20193;-83
2023/07/24 07:00:07;;;;;;;4.95;4.28;;;;;24.40;100138.00;;;;5111607;28;20229;-83
2023/07/24 07:02:35;;;;;;;5.70;4.05;;;;;24.50;100145.00;;;;5111240;28;20227;-82
2023/07/24 07:05:02;;;;;;;4.65;3.95;;;;;24.50;100138.00;;;;5111907;28;20213;-82
2023/07/24 07:07:29;;;;;;;5.28;3.92;;;;;24.60;100139.00;;;;5111347;28;20225;-82
2023/07/24 07:09:56;;;;;;;3.88;3.47;;;;;24.60;100147.00;;;;5110999;28;20197;-82
2023/07/24 07:12:25;;;;;;;5.85;4.30;;;;;24.60;100143.00;;;;5106611;28;20202;-82
2023/07/24 07:14:52;;;;;;;6.30;4.40;;;;;24.70;100150.00;;;;5091186;28;20209;-83
2023/07/24 07:17:19;;;;;;;4.47;4.07;;;;;24.70;100147.00;;;;5090613;28;20202;-83
2023/07/24 07:19:47;;;;;;;6.80;4.55;;;;;24.80;100144.00;;;;5096124;28;20228;-82
2023/07/24 07:22:14;;;;;;;5.57;4.40;;;;;24.80;100142.00;;;;5111449;28;20694;-82
2023/07/24 07:24:43;;;;;;;5.75;4.13;;;;;24.90;100147.00;;;;5110560;28;20198;-83
2023/07/24 07:27:10;;;;;;;6.30;3.55;;;;;24.90;100143.00;;;;5109998;28;20212;-83
2023/07/24 07:29:39;;;;;;;4.45;3.60;;;;;24.90;100145.00;;;;5104642;28;20629;-83
2023/07/24 07:32:07;;;;;;;5.40;4.30;;;;;25.00;100149.00;;;;5090841;28;20213;-83
2023/07/24 07:34:34;;;;;;;6.63;3.88;;;;;25.00;100153.00;;;;5090710;28;20527;-83
2023/07/24 07:37:01;;;;;;;5.03;4.07;;;;;25.00;100153.00;;;;5089879;28;20667;-83
2023/07/24 07:39:29;;;;;;;5.35;3.90;;;;;25.00;100140.00;;;;5090713;28;20640;-83
2023/07/24 07:41:56;;;;;;;5.00;3.75;;;;;25.00;100138.00;;;;5090508;28;20298;-82
2023/07/24 07:44:23;;;;;;;6.03;3.83;;;;;25.00;100135.00;;;;5089862;28;20198;-82
2023/07/24 07:46:52;;;;;;;6.57;4.07;;;;;25.00;100137.00;;;;5090800;28;20206;-82
2023/07/24 07:49:19;;;;;;;5.25;3.65;;;;;25.00;100143.00;;;;5090059;28;20195;-84
2023/07/24 07:51:46;;;;;;;5.45;4.13;;;;;25.00;100125.00;;;;5090770;28;20281;-83
2023/07/24 07:54:15;;;;;;;6.30;3.60;;;;;25.00;100129.00;;;;5090026;28;20202;-83
2023/07/24 07:56:42;;;;;;;5.65;3.63;;;;;25.00;100135.00;;;;5090096;28;20191;-82
2023/07/24 07:59:10;;;;;;;6.72;4.22;;;;;25.00;100130.00;;;;5090069;28;20726;-83
2023/07/24 08:01:39;;;;;;;5.93;4.63;;;;;25.00;100128.00;;;;5090140;28;20974;-83
2023/07/24 08:04:07;;;;;;;4.70;3.45;;;;;25.00;100114.00;;;;5092610;28;20194;-82
2023/07/24 08:06:34;;;;;;;5.22;3.55;;;;;25.10;100123.00;;;;5109693;28;20613;-83
2023/07/24 08:09:02;;;;;;;4.57;3.53;;;;;25.10;100126.00;;;;5110693;28;20202;-83
2023/07/24 08:11:29;;;;;;;4.90;3.60;;;;;25.10;100128.00;;;;5109528;28;20205;-83
2023/07/24 08:13:56;;;;;;;4.45;3.20;;;;;25.20;100131.00;;;;5109966;28;20975;-84
2023/07/24 08:16:23;;;;;;;3.78;3.38;;;;;25.20;100137.00;;;;5109699;28;20198;-82
2023/07/24 08:18:51;;;;;;;4.93;3.47;;;;;25.20;100134.00;;;;5110466;28;20204;-83
2023/07/24 08:21:20;;;;;;;4.93;3.38;;;;;25.20;100132.00;;;;5097087;28;20222;-82
2023/07/24 08:23:47;;;;;;;3.40;3.10;;;;;25.30;100132.00;;;;5089935;28;20209;-84
2023/07/24 08:26:14;;;;;;;6.30;3.95;;;;;25.30;100133.00;;;;5089571;28;20190;-83
2023/07/24 08:28:42;;;;;;;4.38;3.50;;;;;25.30;100126.00;;;;5088788;28;20202;-82
2023/07/24 08:31:10;;;;;;;4.55;3.92;;;;;25.30;100125.00;;;;5088874;28;20198;-81
2023/07/24 08:33:37;;;;;;;5.10;3.83;;;;;25.40;100136.00;;;;5089896;28;20484;-81
2023/07/24 08:36:06;;;;;;;5.07;3.55;;;;;25.40;100133.00;;;;5089548;28;20654;-81
2023/07/24 08:38:35;;;;;;;5.65;4.18;;;;;25.40;100141.00;;;;5089733;28;20207;-81
2023/07/24 08:41:04;;;;;;;4.57;3.72;;;;;25.40;100133.00;;;;5089813;28;20230;-80
2023/07/24 08:43:32;;;;;;;4.75;3.47;;;;;25.40;100132.00;;;;5088631;28;20198;-80
2023/07/24 08:46:00;;;;;;;5.85;4.00;;;;;25.40;100138.00;;;;5088851;28;20278;-82
2023/07/24 08:48:30;;;;;;;5.68;4.05;;;;;25.50;100138.00;;;;5089148;28;20202;-82
2023/07/24 08:50:58;;;;;;;5.75;4.00;;;;;25.50;100147.00;;;;5089472;28;20213;-81
2023/07/24 08:53:26;;;;;;;5.65;4.30;;;;;25.50;100140.00;;;;5088718;28;20270;-81
2023/07/24 08:55:55;;;;;;;5.95;4.15;;;;;25.50;100145.00;;;;5089677;28;20216;-80
2023/07/24 08:58:22;;;;;;;6.10;3.70;;;;;25.50;100139.00;;;;5088974;28;20275;-81
2023/07/24 09:00:51;;;;;;;7.35;4.80;;;;;25.60;100135.00;;;;5088157;28;20694;-81
2023/07/24 09:03:19;;;;;;;7.13;5.30;;;;;25.60;100128.00;;;;5092558;28;20285;-81
2023/07/24 09:05:46;;;;;;;7.00;4.60;;;;;25.70;100121.00;;;;5108979;28;20218;-81
2023/07/24 09:08:14;;;;;;;7.55;4.57;;;;;25.80;100123.00;;;;5108980;28;20262;-81
2023/07/24 09:10:41;;;;;;;3.83;3.47;;;;;25.80;100121.00;;;;5109011;28;20198;-81
2023/07/24 09:13:12;;;;;;;4.97;4.07;;;;;25.80;100115.00;;;;5108198;28;20206;-80
2023/07/24 09:15:43;;;;;;;3.72;3.05;;;;;25.90;100103.00;;;;5109142;28;20193;-81
2023/07/24 09:18:11;;;;;;;4.30;3.85;;;;;26.00;100104.00;;;;5109055;28;20197;-80
2023/07/24 09:20:42;;;;;;;5.03;4.05;;;;;26.00;100095.00;;;;5108135;28;20272;-80
2023/07/24 09:23:11;;;;;;;6.35;4.28;;;;;26.00;100106.00;;;;5108931;28;20208;-82
2023/07/24 09:25:40;;;;;;;6.25;4.38;;;;;26.00;100096.00;;;;5108640;28;20368;-81
2023/07/24 09:28:13;;;;;;;4.93;3.88;;;;;25.90;100100.00;;;;5106360;28;20204;-80
2023/07/24 09:30:41;;;;;;;3.97;3.60;;;;;26.00;100093.00;;;;5088060;28;20735;-80
2023/07/24 09:33:09;;;;;;;5.95;4.05;;;;;26.00;100091.00;;;;5088347;28;20193;-81
2023/07/24 09:35:36;;;;;;;6.10;4.53;;;;;26.00;100077.00;;;;5088631;28;20668;-80
2023/07/24 09:38:05;;;;;;;5.20;4.25;;;;;25.90;100076.00;;;;5088847;28;20300;-82
2023/07/24 09:40:41;;;;;;;3.95;3.50;;;;;25.80;100086.00;;;;5088022;28;20222;-81
2023/07/24 09:43:21;;;;;;;5.60;4.15;;;;;25.70;100093.00;;;;5088423;28;20198;-81
2023/07/24 09:45:50;;;;;;;4.97;3.70;;;;;25.80;100089.00;;;;5088743;28;20209;-82
2023/07/24 09:48:18;;;;;;;4.38;3.75;;;;;25.90;100092.00;;;;5088378;28;20201;-81
2023/07/24 09:50:48;;;;;;;3.58;3.03;;;;;25.90;100093.00;;;;5088623;28;20580;-82
2023/07/24 09:53:19;;;;;;;4.00;3.40;;;;;25.90;100100.00;;;;5088502;28;20247;-81
2023/07/24 09:55:56;;;;;;;3.28;2.60;;;;;25.90;100094.00;;;;5088080;28;20260;-81
2023/07/24 09:58:26;;;;;;;5.53;3.55;;;;;25.90;100100.00;;;;5087492;28;20198;-81
2023/07/24 10:00:53;;;;;;;3.70;3.22;;;;;26.00;100088.00;;;;5087812;28;20265;-80
2023/07/24 10:03:23;;;;;;;3.28;2.95;;;;;26.00;100095.00;;;;5091971;28;20201;-80
2023/07/24 10:05:51;;;;;;;4.80;3.55;;;;;26.00;100104.00;;;;5107570;28;20213;-81
2023/07/24 10:08:19;;;;;;;6.38;3.08;;;;;26.00;100101.00;;;;5107995;28;20205;-80
2023/07/24 10:10:50;;;;;;;6.90;3.47;;;;;26.10;100098.00;;;;5108367;28;20194;-82
2023/07/24 10:13:18;;;;;;;4.00;3.22;;;;;26.10;100096.00;;;;5106822;28;20229;-81
2023/07/24 10:15:49;;;;;;;3.85;2.90;;;;;26.20;100097.00;;;;5108808;28;20197;-82
2023/07/24 10:18:18;;;;;;;5.20;2.90;;;;;26.20;100082.00;;;;5108129;28;20193;-81
2023/07/24 10:20:45;;;;;;;5.00;3.20;;;;;26.20;100082.00;;;;5092436;28;20225;-82
2023/07/24 10:23:18;;;;;;;5.00;3.13;;;;;26.20;100079.00;;;;5100465;28;20198;-81
2023/07/24 10:25:46;;;;;;;6.28;3.80;;;;;26.20;100061.00;;;;5108208;28;20200;-82
2023/07/24 10:28:16;;;;;;;9.40;3.90;;;;;26.20;100076.00;;;;5107945;28;20198;-81
2023/07/24 10:30:43;;;;;;;3.90;2.95;;;;;26.20;100079.00;;;;5108258;28;20274;-80
2023/07/24 10:33:14;;;;;;;3.65;2.72;;;;;26.10;100082.00;;;;5107550;28;20221;-82
2023/07/24 10:35:43;;;;;;;4.13;3.00;;;;;26.10;100077.00;;;;5107544;28;20258;-82
2023/07/24 10:38:11;;;;;;;3.00;2.70;;;;;26.10;100067.00;;;;5088174;28;20206;-80
2023/07/24 10:40:40;;;;;;;4.75;2.88;;;;;26.20;100063.00;;;;5087797;28;20226;-80
2023/07/24 10:43:08;;;;;;;2.85;2.53;;;;;26.20;100073.00;;;;5087719;28;20198;-82
2023/07/24 10:45:49;;;;;;;3.55;2.40;;;;;26.20;100062.00;;;;5086699;28;20230;-82
2023/07/24 10:48:18;;;;;;;3.17;2.20;;;;;26.30;100073.00;;;;5087972;28;20247;-83
2023/07/24 10:50:47;;;;;;;4.28;2.90;;;;;26.30;100067.00;;;;5087159;28;20191;-82
2023/07/24 10:53:16;;;;;;;4.43;3.00;;;;;26.30;100068.00;;;;5087925;28;20205;-82
2023/07/24 10:55:44;;;;;;;2.88;2.42;;;;;26.40;100057.00;;;;5088145;28;20198;-83
2023/07/24 10:58:12;;;;;;;4.22;2.67;;;;;26.40;100059.00;;;;5087740;28;20676;-82
2023/07/24 11:00:40;;;;;;;3.65;2.30;;;;;26.40;100074.00;;;;5086330;28;20222;-80
2023/07/24 11:03:11;;;;;;;3.78;2.92;;;;;26.40;100070.00;;;;5100341;28;20193;-82
2023/07/24 11:05:42;;;;;;;4.43;2.97;;;;;26.40;100064.00;;;;5110825;28;20217;-82
2023/07/24 11:08:13;;;;;;;3.75;2.80;;;;;26.40;100074.00;;;;5111887;28;20198;-83
2023/07/24 11:10:47;;;;;;;4.82;3.30;;;;;26.40;100084.00;;;;5110529;28;20245;-82
2023/07/24 11:13:14;;;;;;;6.50;3.60;;;;;26.50;100082.00;;;;5110473;28;20201;-81
2023/07/24 11:15:41;;;;;;;3.45;3.00;;;;;26.50;100084.00;;;;5110693;28;20201;-82
2023/07/24 11:18:10;;;;;;;7.40;3.90;;;;;26.50;100088.00;;;;5112656;28;20212;-83
2023/07/24 11:20:39;;;;;;;4.80;3.30;;;;;26.60;100080.00;;;;5110467;28;20190;-81
2023/07/24 11:23:07;;;;;;;5.88;4.22;;;;;26.60;100081.00;;;;5111256;28;20205;-82
2023/07/24 11:25:35;;;;;;;5.72;3.67;;;;;26.70;100087.00;;;;5109933;28;20209;-83
2023/07/24 11:28:04;;;;;;;7.13;4.38;;;;;26.80;100094.00;;;;5101113;28;20206;-82
2023/07/24 11:30:31;;;;;;;5.22;4.03;;;;;26.90;100095.00;;;;5090378;28;20208;-83
2023/07/24 11:33:01;;;;;;;5.95;4.40;;;;;26.90;100105.00;;;;5091119;28;20198;-83
2023/07/24 11:35:29;;;;;;;6.47;3.92;;;;;26.90;100103.00;;;;5090316;28;20229;-83
2023/07/24 11:37:56;;;;;;;3.55;3.05;;;;;27.00;100105.00;;;;5090122;28;20198;-82
2023/07/24 11:40:32;;;;;;;7.90;4.68;;;;;27.00;100107.00;;;;5090541;28;20206;-83
2023/07/24 11:43:00;;;;;;;6.05;3.83;;;;;27.00;100105.00;;;;5090072;28;20198;-83
2023/07/24 11:45:27;;;;;;;4.47;3.47;;;;;27.00;100107.00;;;;5090794;28;20195;-82
2023/07/24 11:47:56;;;;;;;6.60;3.80;;;;;27.00;100113.00;;;;5090192;28;20205;-82
2023/07/24 11:50:24;;;;;;;4.80;3.92;;;;;27.00;100115.00;;;;5089586;28;20202;-82
2023/07/24 11:52:52;;;;;;;4.43;3.03;;;;;26.90;100127.00;;;;5090756;28;20206;-81
2023/07/24 11:55:31;;;;;;;5.97;4.43;;;;;26.90;100111.00;;;;5089451;28;20210;-83
2023/07/24 11:58:01;;;;;;;5.80;3.70;;;;;26.80;100108.00;;;;5090337;28;20197;-82
2023/07/24 12:00:28;;;;;;;4.95;3.85;;;;;26.80;100102.00;;;;5089823;28;20523;-82
2023/07/24 12:03:00;;;;;;;7.57;3.80;;;;;26.60;100112.00;;;;5099769;28;20217;-82
2023/07/24 12:05:28;;;;;;;5.93;2.92;;;;;26.60;100104.00;;;;5110070;28;20225;-82
2023/07/24 12:07:56;;;;;;;3.55;3.25;;;;;26.60;100110.00;;;;5110916;28;20702;-82
2023/07/24 12:10:30;;;;;;;5.53;2.83;;;;;26.50;100103.00;;;;5110178;28;20204;-83
2023/07/24 12:13:01;;;;;;;5.40;4.22;;;;;26.50;100107.00;;;;5110279;28;20204;-82